sensor_id;sensor_type;location;lat;lon;timestamp;P1;durP1;ratioP1;P2;durP2;ratioP2
4486;SDS011;2256;48.740;9.106;2023-12-20T00:00:58;1.02;;;1.00;;
4486;SDS011;2256;48.740;9.106;2023-12-20T00:03:25;3.10;;;1.10;;
4486;SDS011;2256;48.740;9.106;2023-12-20T00:05:52;0.90;;;0.90;;
4486;SDS011;2256;48.740;9.106;2023-12-20T00:08:19;1.33;;;1.20;;
4486;SDS011;2256;48.740;9.106;2023-12-20T00:10:45;2.25;;;1.70;;
4486;SDS011;2256;48.740;9.106;2023-12-20T00:13:12;1.30;;;1.20;;
4486;SDS011;2256;48.740;9.106;2023-12-20T00:15:40;1.40;;;1.30;;
4486;SDS011;2256;48.740;9.106;2023-12-20T00:18:07;2.15;;;1.10;;
4486;SDS011;2256;48.740;9.106;2023-12-20T00:20:34;1.10;;;1.10;;
4486;SDS011;2256;48.740;9.106;2023-12-20T00:23:01;1.88;;;1.70;;
4486;SDS011;2256;48.740;9.106;2023-12-20T00:25:28;1.10;;;1.10;;
4486;SDS011;2256;48.740;9.106;2023-12-20T00:27:54;1.17;;;1.05;;
4486;SDS011;2256;48.740;9.106;2023-12-20T00:30:21;1.20;;;1.10;;
4486;SDS011;2256;48.740;9.106;2023-12-20T00:32:50;1.33;;;1.23;;
4486;SDS011;2256;48.740;9.106;2023-12-20T00:35:18;1.20;;;1.10;;
4486;SDS011;2256;48.740;9.106;2023-12-20T00:37:45;1.20;;;1.20;;
4486;SDS011;2256;48.740;9.106;2023-12-20T00:40:12;1.60;;;1.20;;
4486;SDS011;2256;48.740;9.106;2023-12-20T00:42:39;1.58;;;1.20;;
4486;SDS011;2256;48.740;9.106;2023-12-20T00:45:06;1.13;;;1.13;;
4486;SDS011;2256;48.740;9.106;2023-12-20T00:47:33;1.02;;;1.00;;
4486;SDS011;2256;48.740;9.106;2023-12-20T00:50:01;2.65;;;1.20;;
4486;SDS011;2256;48.740;9.106;2023-12-20T00:52:28;1.88;;;1.20;;
4486;SDS011;2256;48.740;9.106;2023-12-20T00:54:55;0.90;;;0.90;;
4486;SDS011;2256;48.740;9.106;2023-12-20T00:57:21;1.20;;;1.10;;
4486;SDS011;2256;48.740;9.106;2023-12-20T00:59:48;7.97;;;1.20;;
4486;SDS011;2256;48.740;9.106;2023-12-20T01:02:15;1.52;;;1.42;;
4486;SDS011;2256;48.740;9.106;2023-12-20T01:04:42;0.98;;;0.98;;
4486;SDS011;2256;48.740;9.106;2023-12-20T01:07:10;1.27;;;1.15;;
4486;SDS011;2256;48.740;9.106;2023-12-20T01:09:37;1.35;;;1.25;;
4486;SDS011;2256;48.740;9.106;2023-12-20T01:12:04;2.47;;;1.20;;
4486;SDS011;2256;48.740;9.106;2023-12-20T01:14:31;1.77;;;1.20;;
4486;SDS011;2256;48.740;9.106;2023-12-20T01:16:59;1.35;;;0.93;;
4486;SDS011;2256;48.740;9.106;2023-12-20T01:19:25;3.50;;;1.20;;
4486;SDS011;2256;48.740;9.106;2023-12-20T01:21:54;2.40;;;1.42;;
4486;SDS011;2256;48.740;9.106;2023-12-20T01:24:22;2.00;;;1.27;;
4486;SDS011;2256;48.740;9.106;2023-12-20T01:26:49;1.60;;;1.33;;
4486;SDS011;2256;48.740;9.106;2023-12-20T01:29:16;1.25;;;1.13;;
4486;SDS011;2256;48.740;9.106;2023-12-20T01:31:43;1.08;;;1.08;;
4486;SDS011;2256;48.740;9.106;2023-12-20T01:34:10;2.33;;;1.42;;
4486;SDS011;2256;48.740;9.106;2023-12-20T01:36:37;3.83;;;1.67;;
4486;SDS011;2256;48.740;9.106;2023-12-20T01:39:03;1.02;;;1.02;;
4486;SDS011;2256;48.740;9.106;2023-12-20T01:41:31;1.52;;;1.40;;
4486;SDS011;2256;48.740;9.106;2023-12-20T01:43:58;1.40;;;1.25;;
4486;SDS011;2256;48.740;9.106;2023-12-20T01:46:25;4.20;;;1.10;;
4486;SDS011;2256;48.740;9.106;2023-12-20T01:48:52;1.75;;;1.20;;
4486;SDS011;2256;48.740;9.106;2023-12-20T01:51:19;2.85;;;1.15;;
4486;SDS011;2256;48.740;9.106;2023-12-20T01:53:46;1.00;;;1.00;;
4486;SDS011;2256;48.740;9.106;2023-12-20T01:56:14;1.10;;;1.00;;
4486;SDS011;2256;48.740;9.106;2023-12-20T01:58:44;1.70;;;1.30;;
4486;SDS011;2256;48.740;9.106;2023-12-20T02:01:12;2.97;;;1.33;;
4486;SDS011;2256;48.740;9.106;2023-12-20T02:03:39;1.52;;;1.42;;
4486;SDS011;2256;48.740;9.106;2023-12-20T02:06:07;1.15;;;1.05;;
4486;SDS011;2256;48.740;9.106;2023-12-20T02:08:34;1.25;;;1.15;;
4486;SDS011;2256;48.740;9.106;2023-12-20T02:11:01;2.92;;;1.38;;
4486;SDS011;2256;48.740;9.106;2023-12-20T02:13:28;1.20;;;1.10;;
4486;SDS011;2256;48.740;9.106;2023-12-20T02:15:56;2.38;;;1.13;;
4486;SDS011;2256;48.740;9.106;2023-12-20T02:18:23;1.40;;;0.80;;
4486;SDS011;2256;48.740;9.106;2023-12-20T02:20:50;1.10;;;0.90;;
4486;SDS011;2256;48.740;9.106;2023-12-20T02:23:18;1.27;;;1.15;;
4486;SDS011;2256;48.740;9.106;2023-12-20T02:25:44;1.15;;;0.93;;
4486;SDS011;2256;48.740;9.106;2023-12-20T02:28:11;1.08;;;1.08;;
4486;SDS011;2256;48.740;9.106;2023-12-20T02:30:38;1.27;;;1.17;;
4486;SDS011;2256;48.740;9.106;2023-12-20T02:33:05;1.23;;;1.13;;
4486;SDS011;2256;48.740;9.106;2023-12-20T02:35:37;0.90;;;0.90;;
4486;SDS011;2256;48.740;9.106;2023-12-20T02:38:04;1.50;;;1.40;;
4486;SDS011;2256;48.740;9.106;2023-12-20T02:40:32;1.00;;;1.00;;
4486;SDS011;2256;48.740;9.106;2023-12-20T02:42:58;5.63;;;1.00;;
4486;SDS011;2256;48.740;9.106;2023-12-20T02:45:25;0.70;;;0.70;;
4486;SDS011;2256;48.740;9.106;2023-12-20T02:47:53;1.10;;;1.10;;
4486;SDS011;2256;48.740;9.106;2023-12-20T02:50:20;7.20;;;1.02;;
4486;SDS011;2256;48.740;9.106;2023-12-20T02:52:46;1.73;;;1.63;;
4486;SDS011;2256;48.740;9.106;2023-12-20T02:55:13;0.70;;;0.70;;
4486;SDS011;2256;48.740;9.106;2023-12-20T02:57:41;5.40;;;0.80;;
4486;SDS011;2256;48.740;9.106;2023-12-20T03:00:08;16.20;;;1.40;;
4486;SDS011;2256;48.740;9.106;2023-12-20T03:02:35;0.80;;;0.80;;
4486;SDS011;2256;48.740;9.106;2023-12-20T03:05:02;1.13;;;0.80;;
4486;SDS011;2256;48.740;9.106;2023-12-20T03:07:29;0.77;;;0.77;;
4486;SDS011;2256;48.740;9.106;2023-12-20T03:09:56;0.70;;;0.70;;
4486;SDS011;2256;48.740;9.106;2023-12-20T03:12:23;1.03;;;0.80;;
4486;SDS011;2256;48.740;9.106;2023-12-20T03:14:51;4.10;;;0.73;;
4486;SDS011;2256;48.740;9.106;2023-12-20T03:17:18;0.70;;;0.70;;
4486;SDS011;2256;48.740;9.106;2023-12-20T03:19:45;0.70;;;0.70;;
4486;SDS011;2256;48.740;9.106;2023-12-20T03:22:12;0.63;;;0.63;;
4486;SDS011;2256;48.740;9.106;2023-12-20T03:24:39;0.80;;;0.80;;
4486;SDS011;2256;48.740;9.106;2023-12-20T03:27:05;0.80;;;0.80;;
4486;SDS011;2256;48.740;9.106;2023-12-20T03:29:32;1.30;;;0.80;;
4486;SDS011;2256;48.740;9.106;2023-12-20T03:32:00;0.73;;;0.73;;
4486;SDS011;2256;48.740;9.106;2023-12-20T03:34:27;1.40;;;0.80;;
4486;SDS011;2256;48.740;9.106;2023-12-20T03:36:54;0.98;;;0.70;;
4486;SDS011;2256;48.740;9.106;2023-12-20T03:39:20;0.60;;;0.60;;
4486;SDS011;2256;48.740;9.106;2023-12-20T03:41:47;0.60;;;0.60;;
4486;SDS011;2256;48.740;9.106;2023-12-20T03:44:14;0.60;;;0.60;;
4486;SDS011;2256;48.740;9.106;2023-12-20T03:46:41;0.60;;;0.60;;
4486;SDS011;2256;48.740;9.106;2023-12-20T03:49:09;0.60;;;0.60;;
4486;SDS011;2256;48.740;9.106;2023-12-20T03:51:36;0.68;;;0.68;;
4486;SDS011;2256;48.740;9.106;2023-12-20T03:54:02;0.65;;;0.65;;
4486;SDS011;2256;48.740;9.106;2023-12-20T03:56:29;0.70;;;0.70;;
4486;SDS011;2256;48.740;9.106;2023-12-20T03:58:56;0.60;;;0.60;;
4486;SDS011;2256;48.740;9.106;2023-12-20T04:01:23;0.60;;;0.60;;
4486;SDS011;2256;48.740;9.106;2023-12-20T04:03:49;0.60;;;0.60;;
4486;SDS011;2256;48.740;9.106;2023-12-20T04:06:18;0.60;;;0.60;;
4486;SDS011;2256;48.740;9.106;2023-12-20T04:08:45;0.60;;;0.60;;
4486;SDS011;2256;48.740;9.106;2023-12-20T04:11:11;0.60;;;0.60;;
4486;SDS011;2256;48.740;9.106;2023-12-20T04:13:38;0.70;;;0.70;;
4486;SDS011;2256;48.740;9.106;2023-12-20T04:16:05;0.60;;;0.60;;
4486;SDS011;2256;48.740;9.106;2023-12-20T04:18:32;2.70;;;0.70;;
4486;SDS011;2256;48.740;9.106;2023-12-20T04:20:59;0.77;;;0.68;;
4486;SDS011;2256;48.740;9.106;2023-12-20T04:23:27;3.80;;;0.80;;
4486;SDS011;2256;48.740;9.106;2023-12-20T04:25:54;0.60;;;0.60;;
4486;SDS011;2256;48.740;9.106;2023-12-20T04:28:21;0.60;;;0.60;;
4486;SDS011;2256;48.740;9.106;2023-12-20T04:30:48;0.70;;;0.70;;
4486;SDS011;2256;48.740;9.106;2023-12-20T04:33:15;0.70;;;0.70;;
4486;SDS011;2256;48.740;9.106;2023-12-20T04:35:42;0.70;;;0.70;;
4486;SDS011;2256;48.740;9.106;2023-12-20T04:38:10;1.25;;;0.70;;
4486;SDS011;2256;48.740;9.106;2023-12-20T04:40:39;0.70;;;0.70;;
4486;SDS011;2256;48.740;9.106;2023-12-20T04:43:06;0.60;;;0.60;;
4486;SDS011;2256;48.740;9.106;2023-12-20T04:45:33;2.05;;;0.80;;
4486;SDS011;2256;48.740;9.106;2023-12-20T04:48:00;1.23;;;0.80;;
4486;SDS011;2256;48.740;9.106;2023-12-20T04:50:28;0.60;;;0.60;;
4486;SDS011;2256;48.740;9.106;2023-12-20T04:52:54;0.70;;;0.70;;
4486;SDS011;2256;48.740;9.106;2023-12-20T04:55:21;0.70;;;0.70;;
4486;SDS011;2256;48.740;9.106;2023-12-20T04:57:49;0.70;;;0.70;;
4486;SDS011;2256;48.740;9.106;2023-12-20T05:00:16;0.70;;;0.70;;
4486;SDS011;2256;48.740;9.106;2023-12-20T05:02:43;0.60;;;0.60;;
4486;SDS011;2256;48.740;9.106;2023-12-20T05:05:10;0.70;;;0.70;;
4486;SDS011;2256;48.740;9.106;2023-12-20T05:07:37;0.70;;;0.70;;
4486;SDS011;2256;48.740;9.106;2023-12-20T05:10:04;1.08;;;0.60;;
4486;SDS011;2256;48.740;9.106;2023-12-20T05:12:33;0.70;;;0.70;;
4486;SDS011;2256;48.740;9.106;2023-12-20T05:15:01;3.05;;;0.70;;
4486;SDS011;2256;48.740;9.106;2023-12-20T05:17:28;0.60;;;0.60;;
4486;SDS011;2256;48.740;9.106;2023-12-20T05:19:55;0.60;;;0.60;;
4486;SDS011;2256;48.740;9.106;2023-12-20T05:22:21;0.60;;;0.60;;
4486;SDS011;2256;48.740;9.106;2023-12-20T05:24:48;0.60;;;0.60;;
4486;SDS011;2256;48.740;9.106;2023-12-20T05:27:15;1.95;;;0.85;;
4486;SDS011;2256;48.740;9.106;2023-12-20T05:29:42;0.60;;;0.60;;
4486;SDS011;2256;48.740;9.106;2023-12-20T05:32:10;1.10;;;1.00;;
4486;SDS011;2256;48.740;9.106;2023-12-20T05:34:37;0.68;;;0.63;;
4486;SDS011;2256;48.740;9.106;2023-12-20T05:37:03;0.90;;;0.70;;
4486;SDS011;2256;48.740;9.106;2023-12-20T05:39:30;0.63;;;0.63;;
4486;SDS011;2256;48.740;9.106;2023-12-20T05:41:57;0.73;;;0.73;;
4486;SDS011;2256;48.740;9.106;2023-12-20T05:44:24;0.70;;;0.70;;
4486;SDS011;2256;48.740;9.106;2023-12-20T05:46:50;0.70;;;0.60;;
4486;SDS011;2256;48.740;9.106;2023-12-20T05:49:18;0.88;;;0.70;;
4486;SDS011;2256;48.740;9.106;2023-12-20T05:51:46;0.85;;;0.85;;
4486;SDS011;2256;48.740;9.106;2023-12-20T05:54:13;0.90;;;0.80;;
4486;SDS011;2256;48.740;9.106;2023-12-20T05:56:40;0.70;;;0.70;;
4486;SDS011;2256;48.740;9.106;2023-12-20T05:59:07;0.70;;;0.70;;
4486;SDS011;2256;48.740;9.106;2023-12-20T06:01:34;0.85;;;0.70;;
4486;SDS011;2256;48.740;9.106;2023-12-20T06:04:01;0.70;;;0.70;;
4486;SDS011;2256;48.740;9.106;2023-12-20T06:06:29;0.70;;;0.70;;
4486;SDS011;2256;48.740;9.106;2023-12-20T06:08:56;2.25;;;1.00;;
4486;SDS011;2256;48.740;9.106;2023-12-20T06:11:23;0.93;;;0.82;;
4486;SDS011;2256;48.740;9.106;2023-12-20T06:13:50;0.93;;;0.90;;
4486;SDS011;2256;48.740;9.106;2023-12-20T06:16:18;0.75;;;0.75;;
4486;SDS011;2256;48.740;9.106;2023-12-20T06:18:45;2.55;;;0.93;;
4486;SDS011;2256;48.740;9.106;2023-12-20T06:21:12;0.80;;;0.80;;
4486;SDS011;2256;48.740;9.106;2023-12-20T06:23:41;0.98;;;0.70;;
4486;SDS011;2256;48.740;9.106;2023-12-20T06:26:07;0.82;;;0.82;;
4486;SDS011;2256;48.740;9.106;2023-12-20T06:28:34;0.80;;;0.80;;
4486;SDS011;2256;48.740;9.106;2023-12-20T06:31:01;3.45;;;1.17;;
4486;SDS011;2256;48.740;9.106;2023-12-20T06:33:28;0.88;;;0.88;;
4486;SDS011;2256;48.740;9.106;2023-12-20T06:35:56;0.73;;;0.73;;
4486;SDS011;2256;48.740;9.106;2023-12-20T06:38:23;2.13;;;1.30;;
4486;SDS011;2256;48.740;9.106;2023-12-20T06:40:51;0.80;;;0.80;;
4486;SDS011;2256;48.740;9.106;2023-12-20T06:43:17;1.60;;;1.15;;
4486;SDS011;2256;48.740;9.106;2023-12-20T06:45:44;1.25;;;0.90;;
4486;SDS011;2256;48.740;9.106;2023-12-20T06:48:11;13.93;;;1.15;;
4486;SDS011;2256;48.740;9.106;2023-12-20T06:50:38;2.67;;;0.93;;
4486;SDS011;2256;48.740;9.106;2023-12-20T06:53:05;0.80;;;0.80;;
4486;SDS011;2256;48.740;9.106;2023-12-20T06:55:33;1.42;;;1.08;;
4486;SDS011;2256;48.740;9.106;2023-12-20T06:58:01;1.17;;;0.90;;
4486;SDS011;2256;48.740;9.106;2023-12-20T07:00:28;1.10;;;0.90;;
4486;SDS011;2256;48.740;9.106;2023-12-20T07:02:56;0.73;;;0.70;;
4486;SDS011;2256;48.740;9.106;2023-12-20T07:05:23;1.23;;;1.00;;
4486;SDS011;2256;48.740;9.106;2023-12-20T07:07:50;0.80;;;0.80;;
4486;SDS011;2256;48.740;9.106;2023-12-20T07:10:17;0.90;;;0.90;;
4486;SDS011;2256;48.740;9.106;2023-12-20T07:12:44;0.80;;;0.80;;
4486;SDS011;2256;48.740;9.106;2023-12-20T07:15:12;1.05;;;0.80;;
4486;SDS011;2256;48.740;9.106;2023-12-20T07:17:39;2.17;;;1.00;;
4486;SDS011;2256;48.740;9.106;2023-12-20T07:20:06;0.90;;;0.90;;
4486;SDS011;2256;48.740;9.106;2023-12-20T07:22:35;0.80;;;0.80;;
4486;SDS011;2256;48.740;9.106;2023-12-20T07:25:03;0.85;;;0.85;;
4486;SDS011;2256;48.740;9.106;2023-12-20T07:27:30;1.10;;;1.00;;
4486;SDS011;2256;48.740;9.106;2023-12-20T07:29:57;1.25;;;1.15;;
4486;SDS011;2256;48.740;9.106;2023-12-20T07:32:25;1.00;;;1.00;;
4486;SDS011;2256;48.740;9.106;2023-12-20T07:34:52;1.13;;;1.02;;
4486;SDS011;2256;48.740;9.106;2023-12-20T07:37:19;1.58;;;1.42;;
4486;SDS011;2256;48.740;9.106;2023-12-20T07:39:46;2.00;;;1.65;;
4486;SDS011;2256;48.740;9.106;2023-12-20T07:42:13;3.20;;;1.95;;
4486;SDS011;2256;48.740;9.106;2023-12-20T07:44:40;1.95;;;1.77;;
4486;SDS011;2256;48.740;9.106;2023-12-20T07:47:07;2.28;;;2.00;;
4486;SDS011;2256;48.740;9.106;2023-12-20T07:49:35;2.53;;;2.17;;
4486;SDS011;2256;48.740;9.106;2023-12-20T07:52:01;2.17;;;1.98;;
4486;SDS011;2256;48.740;9.106;2023-12-20T07:54:28;1.85;;;1.75;;
4486;SDS011;2256;48.740;9.106;2023-12-20T07:56:55;2.75;;;2.08;;
4486;SDS011;2256;48.740;9.106;2023-12-20T07:59:23;4.38;;;2.83;;
4486;SDS011;2256;48.740;9.106;2023-12-20T08:01:49;3.60;;;2.67;;
4486;SDS011;2256;48.740;9.106;2023-12-20T08:04:16;6.47;;;2.67;;
4486;SDS011;2256;48.740;9.106;2023-12-20T08:06:44;3.10;;;2.45;;
4486;SDS011;2256;48.740;9.106;2023-12-20T08:09:11;3.03;;;2.30;;
4486;SDS011;2256;48.740;9.106;2023-12-20T08:11:38;2.58;;;2.35;;
4486;SDS011;2256;48.740;9.106;2023-12-20T08:14:04;3.28;;;2.63;;
4486;SDS011;2256;48.740;9.106;2023-12-20T08:16:31;4.00;;;2.80;;
4486;SDS011;2256;48.740;9.106;2023-12-20T08:18:58;4.65;;;2.50;;
4486;SDS011;2256;48.740;9.106;2023-12-20T08:21:25;4.65;;;2.72;;
4486;SDS011;2256;48.740;9.106;2023-12-20T08:23:53;4.30;;;2.33;;
4486;SDS011;2256;48.740;9.106;2023-12-20T08:26:19;2.80;;;2.50;;
4486;SDS011;2256;48.740;9.106;2023-12-20T08:28:47;4.22;;;2.80;;
4486;SDS011;2256;48.740;9.106;2023-12-20T08:31:14;4.88;;;2.53;;
4486;SDS011;2256;48.740;9.106;2023-12-20T08:33:43;2.47;;;2.25;;
4486;SDS011;2256;48.740;9.106;2023-12-20T08:36:10;4.70;;;2.88;;
4486;SDS011;2256;48.740;9.106;2023-12-20T08:38:37;4.82;;;2.90;;
4486;SDS011;2256;48.740;9.106;2023-12-20T08:41:05;3.63;;;2.60;;
4486;SDS011;2256;48.740;9.106;2023-12-20T08:43:33;3.40;;;2.65;;
4486;SDS011;2256;48.740;9.106;2023-12-20T08:46:01;3.70;;;2.80;;
4486;SDS011;2256;48.740;9.106;2023-12-20T08:48:28;11.23;;;2.72;;
4486;SDS011;2256;48.740;9.106;2023-12-20T08:50:55;2.65;;;2.10;;
4486;SDS011;2256;48.740;9.106;2023-12-20T08:53:21;3.20;;;2.50;;
4486;SDS011;2256;48.740;9.106;2023-12-20T08:55:48;7.97;;;2.15;;
4486;SDS011;2256;48.740;9.106;2023-12-20T08:58:16;3.30;;;2.30;;
4486;SDS011;2256;48.740;9.106;2023-12-20T09:00:43;6.90;;;2.33;;
4486;SDS011;2256;48.740;9.106;2023-12-20T09:03:11;2.88;;;2.30;;
4486;SDS011;2256;48.740;9.106;2023-12-20T09:05:37;4.05;;;2.20;;
4486;SDS011;2256;48.740;9.106;2023-12-20T09:08:04;5.43;;;2.28;;
4486;SDS011;2256;48.740;9.106;2023-12-20T09:10:32;8.13;;;2.10;;
4486;SDS011;2256;48.740;9.106;2023-12-20T09:12:59;5.90;;;2.28;;
4486;SDS011;2256;48.740;9.106;2023-12-20T09:15:27;5.25;;;2.25;;
4486;SDS011;2256;48.740;9.106;2023-12-20T09:17:55;1.97;;;1.77;;
4486;SDS011;2256;48.740;9.106;2023-12-20T09:20:22;1.77;;;1.30;;
4486;SDS011;2256;48.740;9.106;2023-12-20T09:22:49;2.20;;;1.23;;
4486;SDS011;2256;48.740;9.106;2023-12-20T09:25:16;3.17;;;2.30;;
4486;SDS011;2256;48.740;9.106;2023-12-20T09:27:42;4.30;;;1.40;;
4486;SDS011;2256;48.740;9.106;2023-12-20T09:30:09;1.90;;;1.40;;
4486;SDS011;2256;48.740;9.106;2023-12-20T09:32:37;3.20;;;1.50;;
4486;SDS011;2256;48.740;9.106;2023-12-20T09:35:05;1.40;;;1.30;;
4486;SDS011;2256;48.740;9.106;2023-12-20T09:37:33;7.57;;;1.90;;
4486;SDS011;2256;48.740;9.106;2023-12-20T09:40:00;1.93;;;1.47;;
4486;SDS011;2256;48.740;9.106;2023-12-20T09:42:29;5.20;;;1.40;;
4486;SDS011;2256;48.740;9.106;2023-12-20T09:45:04;12.20;;;1.80;;
4486;SDS011;2256;48.740;9.106;2023-12-20T09:47:35;1.25;;;1.20;;
4486;SDS011;2256;48.740;9.106;2023-12-20T09:50:04;12.10;;;1.80;;
4486;SDS011;2256;48.740;9.106;2023-12-20T09:52:31;3.67;;;1.23;;
4486;SDS011;2256;48.740;9.106;2023-12-20T09:55:00;8.95;;;1.40;;
4486;SDS011;2256;48.740;9.106;2023-12-20T09:57:30;4.53;;;1.50;;
4486;SDS011;2256;48.740;9.106;2023-12-20T09:59:57;6.57;;;1.90;;
4486;SDS011;2256;48.740;9.106;2023-12-20T10:02:24;3.17;;;1.60;;
4486;SDS011;2256;48.740;9.106;2023-12-20T10:04:54;2.35;;;1.65;;
4486;SDS011;2256;48.740;9.106;2023-12-20T10:07:21;4.25;;;1.48;;
4486;SDS011;2256;48.740;9.106;2023-12-20T10:09:48;2.97;;;1.50;;
4486;SDS011;2256;48.740;9.106;2023-12-20T10:12:17;2.45;;;1.50;;
4486;SDS011;2256;48.740;9.106;2023-12-20T10:14:46;5.45;;;1.10;;
4486;SDS011;2256;48.740;9.106;2023-12-20T10:17:13;26.48;;;1.98;;
4486;SDS011;2256;48.740;9.106;2023-12-20T10:19:40;5.20;;;1.30;;
4486;SDS011;2256;48.740;9.106;2023-12-20T10:22:10;3.50;;;1.55;;
4486;SDS011;2256;48.740;9.106;2023-12-20T10:24:37;1.53;;;1.43;;
4486;SDS011;2256;48.740;9.106;2023-12-20T10:27:04;2.42;;;1.60;;
4486;SDS011;2256;48.740;9.106;2023-12-20T10:29:32;5.65;;;1.30;;
4486;SDS011;2256;48.740;9.106;2023-12-20T10:31:59;3.55;;;1.20;;
4486;SDS011;2256;48.740;9.106;2023-12-20T10:34:26;1.15;;;1.02;;
4486;SDS011;2256;48.740;9.106;2023-12-20T10:36:53;2.17;;;1.33;;
4486;SDS011;2256;48.740;9.106;2023-12-20T10:39:21;4.05;;;1.38;;
4486;SDS011;2256;48.740;9.106;2023-12-20T10:41:48;2.13;;;1.50;;
4486;SDS011;2256;48.740;9.106;2023-12-20T10:44:15;7.63;;;1.60;;
4486;SDS011;2256;48.740;9.106;2023-12-20T10:46:42;4.63;;;1.75;;
4486;SDS011;2256;48.740;9.106;2023-12-20T10:49:16;3.00;;;1.45;;
4486;SDS011;2256;48.740;9.106;2023-12-20T10:51:45;2.88;;;1.50;;
4486;SDS011;2256;48.740;9.106;2023-12-20T10:54:13;5.30;;;1.65;;
4486;SDS011;2256;48.740;9.106;2023-12-20T10:56:42;4.43;;;1.13;;
4486;SDS011;2256;48.740;9.106;2023-12-20T10:59:10;2.67;;;1.17;;
4486;SDS011;2256;48.740;9.106;2023-12-20T11:01:38;1.10;;;1.10;;
4486;SDS011;2256;48.740;9.106;2023-12-20T11:04:08;4.00;;;1.50;;
4486;SDS011;2256;48.740;9.106;2023-12-20T11:06:41;4.70;;;1.27;;
4486;SDS011;2256;48.740;9.106;2023-12-20T11:09:13;2.08;;;1.40;;
4486;SDS011;2256;48.740;9.106;2023-12-20T11:11:56;1.48;;;1.38;;
4486;SDS011;2256;48.740;9.106;2023-12-20T11:14:29;3.95;;;1.20;;
4486;SDS011;2256;48.740;9.106;2023-12-20T11:17:07;15.53;;;1.80;;
4486;SDS011;2256;48.740;9.106;2023-12-20T11:19:35;11.98;;;1.50;;
4486;SDS011;2256;48.740;9.106;2023-12-20T11:22:03;1.40;;;1.15;;
4486;SDS011;2256;48.740;9.106;2023-12-20T11:24:31;2.42;;;1.23;;
4486;SDS011;2256;48.740;9.106;2023-12-20T11:27:00;3.28;;;1.10;;
4486;SDS011;2256;48.740;9.106;2023-12-20T11:29:31;2.88;;;1.40;;
4486;SDS011;2256;48.740;9.106;2023-12-20T11:32:00;3.35;;;1.42;;
4486;SDS011;2256;48.740;9.106;2023-12-20T11:34:27;12.60;;;1.60;;
4486;SDS011;2256;48.740;9.106;2023-12-20T11:36:57;7.82;;;1.45;;
4486;SDS011;2256;48.740;9.106;2023-12-20T11:39:25;1.45;;;1.35;;
4486;SDS011;2256;48.740;9.106;2023-12-20T11:41:52;7.43;;;1.70;;
4486;SDS011;2256;48.740;9.106;2023-12-20T11:44:22;3.58;;;1.42;;
4486;SDS011;2256;48.740;9.106;2023-12-20T11:46:51;4.32;;;1.42;;
4486;SDS011;2256;48.740;9.106;2023-12-20T11:49:22;7.75;;;1.85;;
4486;SDS011;2256;48.740;9.106;2023-12-20T11:51:49;3.35;;;1.48;;
4486;SDS011;2256;48.740;9.106;2023-12-20T11:54:16;7.82;;;1.63;;
4486;SDS011;2256;48.740;9.106;2023-12-20T11:56:43;1.50;;;1.35;;
4486;SDS011;2256;48.740;9.106;2023-12-20T11:59:09;7.68;;;1.13;;
4486;SDS011;2256;48.740;9.106;2023-12-20T12:01:37;7.32;;;1.30;;
4486;SDS011;2256;48.740;9.106;2023-12-20T12:04:04;2.00;;;1.40;;
4486;SDS011;2256;48.740;9.106;2023-12-20T12:06:31;4.60;;;1.60;;
4486;SDS011;2256;48.740;9.106;2023-12-20T12:08:58;1.50;;;1.20;;
4486;SDS011;2256;48.740;9.106;2023-12-20T12:11:25;4.40;;;1.20;;
4486;SDS011;2256;48.740;9.106;2023-12-20T12:13:51;11.93;;;1.30;;
4486;SDS011;2256;48.740;9.106;2023-12-20T12:16:18;8.27;;;1.75;;
4486;SDS011;2256;48.740;9.106;2023-12-20T12:18:54;8.63;;;1.15;;
4486;SDS011;2256;48.740;9.106;2023-12-20T12:21:21;5.05;;;1.20;;
4486;SDS011;2256;48.740;9.106;2023-12-20T12:23:48;2.40;;;1.65;;
4486;SDS011;2256;48.740;9.106;2023-12-20T12:26:15;2.25;;;1.20;;
4486;SDS011;2256;48.740;9.106;2023-12-20T12:28:42;4.80;;;1.75;;
4486;SDS011;2256;48.740;9.106;2023-12-20T12:31:09;3.30;;;1.75;;
4486;SDS011;2256;48.740;9.106;2023-12-20T12:33:39;4.65;;;1.35;;
4486;SDS011;2256;48.740;9.106;2023-12-20T12:36:08;8.10;;;1.20;;
4486;SDS011;2256;48.740;9.106;2023-12-20T12:38:36;1.42;;;1.35;;
4486;SDS011;2256;48.740;9.106;2023-12-20T12:41:03;4.20;;;1.85;;
4486;SDS011;2256;48.740;9.106;2023-12-20T12:43:31;1.50;;;1.40;;
4486;SDS011;2256;48.740;9.106;2023-12-20T12:45:58;1.65;;;1.25;;
4486;SDS011;2256;48.740;9.106;2023-12-20T12:48:25;12.38;;;1.80;;
4486;SDS011;2256;48.740;9.106;2023-12-20T12:50:53;8.52;;;2.03;;
4486;SDS011;2256;48.740;9.106;2023-12-20T12:53:25;9.07;;;1.58;;
4486;SDS011;2256;48.740;9.106;2023-12-20T12:55:52;2.75;;;1.58;;
4486;SDS011;2256;48.740;9.106;2023-12-20T12:58:19;4.07;;;1.75;;
4486;SDS011;2256;48.740;9.106;2023-12-20T13:00:47;3.78;;;1.40;;
4486;SDS011;2256;48.740;9.106;2023-12-20T13:03:14;0.90;;;0.90;;
4486;SDS011;2256;48.740;9.106;2023-12-20T13:05:40;2.08;;;1.02;;
4486;SDS011;2256;48.740;9.106;2023-12-20T13:08:08;9.82;;;1.38;;
4486;SDS011;2256;48.740;9.106;2023-12-20T13:10:38;2.28;;;1.60;;
4486;SDS011;2256;48.740;9.106;2023-12-20T13:13:05;2.50;;;1.30;;
4486;SDS011;2256;48.740;9.106;2023-12-20T13:15:32;4.30;;;1.20;;
4486;SDS011;2256;48.740;9.106;2023-12-20T13:17:58;5.15;;;1.58;;
4486;SDS011;2256;48.740;9.106;2023-12-20T13:20:26;10.18;;;1.58;;
4486;SDS011;2256;48.740;9.106;2023-12-20T13:22:52;6.60;;;1.23;;
4486;SDS011;2256;48.740;9.106;2023-12-20T13:25:19;1.38;;;0.95;;
4486;SDS011;2256;48.740;9.106;2023-12-20T13:27:47;4.68;;;1.13;;
4486;SDS011;2256;48.740;9.106;2023-12-20T13:30:15;3.83;;;1.27;;
4486;SDS011;2256;48.740;9.106;2023-12-20T13:32:42;3.70;;;1.58;;
4486;SDS011;2256;48.740;9.106;2023-12-20T13:35:09;3.30;;;1.40;;
4486;SDS011;2256;48.740;9.106;2023-12-20T13:37:36;2.70;;;0.90;;
4486;SDS011;2256;48.740;9.106;2023-12-20T13:40:03;2.28;;;1.17;;
4486;SDS011;2256;48.740;9.106;2023-12-20T13:42:31;3.70;;;1.40;;
4486;SDS011;2256;48.740;9.106;2023-12-20T13:44:59;6.30;;;1.88;;
4486;SDS011;2256;48.740;9.106;2023-12-20T13:47:25;5.03;;;1.13;;
4486;SDS011;2256;48.740;9.106;2023-12-20T13:49:53;1.52;;;1.08;;
4486;SDS011;2256;48.740;9.106;2023-12-20T13:52:21;38.55;;;1.52;;
4486;SDS011;2256;48.740;9.106;2023-12-20T13:54:47;1.10;;;1.00;;
4486;SDS011;2256;48.740;9.106;2023-12-20T13:57:14;6.63;;;1.40;;
4486;SDS011;2256;48.740;9.106;2023-12-20T13:59:41;9.25;;;1.90;;
4486;SDS011;2256;48.740;9.106;2023-12-20T14:02:09;1.90;;;1.15;;
4486;SDS011;2256;48.740;9.106;2023-12-20T14:04:36;4.10;;;1.20;;
4486;SDS011;2256;48.740;9.106;2023-12-20T14:07:04;2.20;;;1.60;;
4486;SDS011;2256;48.740;9.106;2023-12-20T14:09:32;3.13;;;1.10;;
4486;SDS011;2256;48.740;9.106;2023-12-20T14:11:59;4.10;;;1.00;;
4486;SDS011;2256;48.740;9.106;2023-12-20T14:14:26;1.10;;;1.00;;
4486;SDS011;2256;48.740;9.106;2023-12-20T14:16:52;5.28;;;1.50;;
4486;SDS011;2256;48.740;9.106;2023-12-20T14:19:20;1.52;;;1.10;;
4486;SDS011;2256;48.740;9.106;2023-12-20T14:21:47;2.45;;;1.75;;
4486;SDS011;2256;48.740;9.106;2023-12-20T14:24:14;12.50;;;1.85;;
4486;SDS011;2256;48.740;9.106;2023-12-20T14:26:41;3.88;;;1.25;;
4486;SDS011;2256;48.740;9.106;2023-12-20T14:29:08;6.88;;;1.40;;
4486;SDS011;2256;48.740;9.106;2023-12-20T14:31:35;3.05;;;1.10;;
4486;SDS011;2256;48.740;9.106;2023-12-20T14:34:03;4.10;;;1.13;;
4486;SDS011;2256;48.740;9.106;2023-12-20T14:36:31;3.97;;;1.10;;
4486;SDS011;2256;48.740;9.106;2023-12-20T14:38:58;1.43;;;1.33;;
4486;SDS011;2256;48.740;9.106;2023-12-20T14:41:25;1.80;;;1.50;;
4486;SDS011;2256;48.740;9.106;2023-12-20T14:43:51;1.00;;;1.00;;
4486;SDS011;2256;48.740;9.106;2023-12-20T14:46:18;3.38;;;1.55;;
4486;SDS011;2256;48.740;9.106;2023-12-20T14:48:45;2.80;;;1.42;;
4486;SDS011;2256;48.740;9.106;2023-12-20T14:51:11;4.35;;;1.30;;
4486;SDS011;2256;48.740;9.106;2023-12-20T14:53:39;2.88;;;2.00;;
4486;SDS011;2256;48.740;9.106;2023-12-20T14:56:07;1.10;;;1.10;;
4486;SDS011;2256;48.740;9.106;2023-12-20T14:58:34;2.42;;;1.40;;
4486;SDS011;2256;48.740;9.106;2023-12-20T15:01:02;3.63;;;1.20;;
4486;SDS011;2256;48.740;9.106;2023-12-20T15:03:29;1.23;;;1.08;;
4486;SDS011;2256;48.740;9.106;2023-12-20T15:05:56;1.85;;;1.30;;
4486;SDS011;2256;48.740;9.106;2023-12-20T15:08:23;2.53;;;1.40;;
4486;SDS011;2256;48.740;9.106;2023-12-20T15:10:51;4.38;;;1.55;;
4486;SDS011;2256;48.740;9.106;2023-12-20T15:13:18;1.65;;;1.55;;
4486;SDS011;2256;48.740;9.106;2023-12-20T15:15:45;1.50;;;1.17;;